sensor_id;sensor_type;location;lat;lon;timestamp;pressure;altitude;pressure_sealevel;temperature;humidity
30856;BME280;17570;0.000;0.000;2023-01-30T00:01:44;97324.68;;;11.41;38.09
30856;BME280;17570;0.000;0.000;2023-01-30T00:04:12;97317.36;;;11.35;38.50
30856;BME280;17570;0.000;0.000;2023-01-30T00:06:39;97313.59;;;11.39;38.26
30856;BME280;17570;0.000;0.000;2023-01-30T00:09:08;97314.99;;;11.55;38.11
30856;BME280;17570;0.000;0.000;2023-01-30T00:11:36;97313.34;;;11.31;38.70
30856;BME280;17570;0.000;0.000;2023-01-30T00:14:03;97312.15;;;11.46;37.88
30856;BME280;17570;0.000;0.000;2023-01-30T00:16:31;97311.56;;;11.54;37.95
30856;BME280;17570;0.000;0.000;2023-01-30T00:18:58;97307.45;;;11.29;38.32
30856;BME280;17570;0.000;0.000;2023-01-30T00:21:26;97308.61;;;11.36;38.45
30856;BME280;17570;0.000;0.000;2023-01-30T00:23:53;97299.77;;;11.39;38.36
30856;BME280;17570;0.000;0.000;2023-01-30T00:26:21;97304.23;;;11.59;38.13
30856;BME280;17570;0.000;0.000;2023-01-30T00:28:48;97302.84;;;11.44;38.35
30856;BME280;17570;0.000;0.000;2023-01-30T00:31:15;97302.22;;;11.52;38.28
30856;BME280;17570;0.000;0.000;2023-01-30T00:33:43;97302.23;;;11.63;37.90
30856;BME280;17570;0.000;0.000;2023-01-30T00:36:11;97304.95;;;11.50;37.63
30856;BME280;17570;0.000;0.000;2023-01-30T00:38:39;97296.22;;;11.40;37.99
30856;BME280;17570;0.000;0.000;2023-01-30T00:41:06;97305.08;;;11.48;38.02
30856;BME280;17570;0.000;0.000;2023-01-30T00:43:36;97301.14;;;11.65;37.66
30856;BME280;17570;0.000;0.000;2023-01-30T00:46:26;97298.91;;;11.61;37.59
30856;BME280;17570;0.000;0.000;2023-01-30T00:49:11;97291.84;;;11.40;37.97
30856;BME280;17570;0.000;0.000;2023-01-30T00:51:40;97297.28;;;11.26;37.87
30856;BME280;17570;0.000;0.000;2023-01-30T00:54:07;97292.07;;;11.37;37.57
30856;BME280;17570;0.000;0.000;2023-01-30T00:56:35;97296.57;;;11.35;37.79
30856;BME280;17570;0.000;0.000;2023-01-30T00:59:02;97297.38;;;11.47;37.93
30856;BME280;17570;0.000;0.000;2023-01-30T01:01:30;97300.34;;;11.54;37.60
30856;BME280;17570;0.000;0.000;2023-01-30T01:03:57;97290.42;;;11.36;37.77
30856;BME280;17570;0.000;0.000;2023-01-30T01:06:25;97293.28;;;11.33;38.10
30856;BME280;17570;0.000;0.000;2023-01-30T01:08:52;97295.73;;;11.46;37.66
30856;BME280;17570;0.000;0.000;2023-01-30T01:11:20;97289.48;;;11.48;37.53
30856;BME280;17570;0.000;0.000;2023-01-30T01:13:57;97279.58;;;11.42;37.74
30856;BME280;17570;0.000;0.000;2023-01-30T01:16:20;97280.40;;;11.43;37.65
30856;BME280;17570;0.000;0.000;2023-01-30T01:18:47;97275.64;;;11.59;37.64
30856;BME280;17570;0.000;0.000;2023-01-30T01:21:15;97275.66;;;11.37;37.80
30856;BME280;17570;0.000;0.000;2023-01-30T01:23:43;97281.80;;;11.36;38.00
30856;BME280;17570;0.000;0.000;2023-01-30T01:26:12;97281.78;;;11.47;37.81
30856;BME280;17570;0.000;0.000;2023-01-30T01:28:41;97276.02;;;11.43;37.88
30856;BME280;17570;0.000;0.000;2023-01-30T01:31:10;97271.78;;;11.42;37.84
30856;BME280;17570;0.000;0.000;2023-01-30T01:33:37;97271.78;;;11.42;37.86
30856;BME280;17570;0.000;0.000;2023-01-30T01:36:05;97276.00;;;11.55;37.80
30856;BME280;17570;0.000;0.000;2023-01-30T01:38:33;97270.92;;;11.53;37.69
30856;BME280;17570;0.000;0.000;2023-01-30T01:41:01;97268.33;;;11.42;37.94
30856;BME280;17570;0.000;0.000;2023-01-30T01:43:37;97272.94;;;11.49;37.85
30856;BME280;17570;0.000;0.000;2023-01-30T01:48:34;97264.20;;;11.28;38.25
30856;BME280;17570;0.000;0.000;2023-01-30T01:51:10;97269.03;;;11.33;38.42
30856;BME280;17570;0.000;0.000;2023-01-30T01:53:39;97274.35;;;11.54;38.09
30856;BME280;17570;0.000;0.000;2023-01-30T01:56:07;97268.06;;;11.56;38.01
30856;BME280;17570;0.000;0.000;2023-01-30T01:58:44;97256.84;;;11.56;37.57
30856;BME280;17570;0.000;0.000;2023-01-30T02:01:07;97256.84;;;11.56;37.86
30856;BME280;17570;0.000;0.000;2023-01-30T02:03:36;97257.56;;;11.46;37.94
30856;BME280;17570;0.000;0.000;2023-01-30T02:06:04;97248.59;;;11.50;37.77
30856;BME280;17570;0.000;0.000;2023-01-30T02:08:39;97241.28;;;11.44;38.00
30856;BME280;17570;0.000;0.000;2023-01-30T02:11:08;97246.61;;;11.32;38.19
30856;BME280;17570;0.000;0.000;2023-01-30T02:13:36;97241.17;;;11.35;37.93
30856;BME280;17570;0.000;0.000;2023-01-30T02:16:04;97239.16;;;11.27;38.37
30856;BME280;17570;0.000;0.000;2023-01-30T02:18:33;97235.88;;;11.25;38.56
30856;BME280;17570;0.000;0.000;2023-01-30T02:21:10;97236.11;;;11.33;38.61
30856;BME280;17570;0.000;0.000;2023-01-30T02:23:55;97233.81;;;11.51;38.30
30856;BME280;17570;0.000;0.000;2023-01-30T02:28:54;97227.59;;;11.09;39.18
30856;BME280;17570;0.000;0.000;2023-01-30T02:32:04;97223.83;;;11.24;38.56
30856;BME280;17570;0.000;0.000;2023-01-30T02:36:42;97216.94;;;11.45;37.95
30856;BME280;17570;0.000;0.000;2023-01-30T02:39:24;97213.88;;;11.40;38.16
30856;BME280;17570;0.000;0.000;2023-01-30T02:47:20;97207.52;;;11.22;38.70
30856;BME280;17570;0.000;0.000;2023-01-30T02:49:45;97207.52;;;11.22;38.75
30856;BME280;17570;0.000;0.000;2023-01-30T02:52:12;97201.60;;;11.42;38.20
30856;BME280;17570;0.000;0.000;2023-01-30T02:54:40;97206.80;;;11.42;38.23
30856;BME280;17570;0.000;0.000;2023-01-30T02:57:16;97206.80;;;11.31;38.50
30856;BME280;17570;0.000;0.000;2023-01-30T02:59:44;97206.57;;;11.34;38.45
30856;BME280;17570;0.000;0.000;2023-01-30T03:13:02;97217.11;;;11.10;38.66
30856;BME280;17570;0.000;0.000;2023-01-30T03:15:28;97209.53;;;11.30;38.30
30856;BME280;17570;0.000;0.000;2023-01-30T03:17:53;97208.70;;;11.29;38.24
30856;BME280;17570;0.000;0.000;2023-01-30T03:20:21;97212.09;;;11.41;37.99
30856;BME280;17570;0.000;0.000;2023-01-30T03:22:50;97213.24;;;11.59;37.94
30856;BME280;17570;0.000;0.000;2023-01-30T03:25:21;97210.77;;;11.58;37.91
30856;BME280;17570;0.000;0.000;2023-01-30T03:27:50;97208.27;;;11.56;37.69
30856;BME280;17570;0.000;0.000;2023-01-30T03:30:19;97210.22;;;11.43;38.06
30856;BME280;17570;0.000;0.000;2023-01-30T03:32:47;97205.62;;;11.35;38.12
30856;BME280;17570;0.000;0.000;2023-01-30T03:35:15;97211.05;;;11.32;38.01
30856;BME280;17570;0.000;0.000;2023-01-30T03:37:43;97215.75;;;11.49;37.86
30856;BME280;17570;0.000;0.000;2023-01-30T03:40:12;97213.88;;;11.40;37.92
30856;BME280;17570;0.000;0.000;2023-01-30T03:42:40;97212.13;;;11.30;38.29
30856;BME280;17570;0.000;0.000;2023-01-30T03:45:09;97207.98;;;11.38;38.06
30856;BME280;17570;0.000;0.000;2023-01-30T03:47:36;97212.33;;;11.49;37.79
30856;BME280;17570;0.000;0.000;2023-01-30T03:50:04;97205.81;;;11.55;37.59
30856;BME280;17570;0.000;0.000;2023-01-30T03:52:35;97210.09;;;11.44;37.95
30856;BME280;17570;0.000;0.000;2023-01-30T03:55:04;97206.80;;;11.42;37.94
30856;BME280;17570;0.000;0.000;2023-01-30T03:57:32;97211.01;;;11.55;37.68
30856;BME280;17570;0.000;0.000;2023-01-30T04:00:00;97205.22;;;11.51;37.60
30856;BME280;17570;0.000;0.000;2023-01-30T04:02:29;97201.56;;;11.54;37.64
30856;BME280;17570;0.000;0.000;2023-01-30T04:04:58;97205.48;;;11.48;37.67
30856;BME280;17570;0.000;0.000;2023-01-30T04:07:27;97205.39;;;11.38;38.01
30856;BME280;17570;0.000;0.000;2023-01-30T04:09:55;97204.66;;;11.47;37.90
30856;BME280;17570;0.000;0.000;2023-01-30T04:12:24;97204.75;;;11.57;37.77
30856;BME280;17570;0.000;0.000;2023-01-30T04:14:53;97203.20;;;11.66;37.61
30856;BME280;17570;0.000;0.000;2023-01-30T04:17:25;97202.02;;;11.59;37.45
30856;BME280;17570;0.000;0.000;2023-01-30T04:20:11;97202.42;;;11.43;37.88
30856;BME280;17570;0.000;0.000;2023-01-30T04:22:40;97197.49;;;11.29;38.26
30856;BME280;17570;0.000;0.000;2023-01-30T04:25:07;97194.06;;;11.17;38.41
30856;BME280;17570;0.000;0.000;2023-01-30T04:27:35;97197.92;;;11.45;38.02
30856;BME280;17570;0.000;0.000;2023-01-30T04:30:11;97200.16;;;11.49;37.97
30856;BME280;17570;0.000;0.000;2023-01-30T04:32:39;97195.64;;;11.52;37.99
30856;BME280;17570;0.000;0.000;2023-01-30T04:35:07;97195.81;;;11.39;38.14
30856;BME280;17570;0.000;0.000;2023-01-30T04:37:35;97194.41;;;11.35;38.10
30856;BME280;17570;0.000;0.000;2023-01-30T04:40:03;97195.69;;;11.40;38.08
30856;BME280;17570;0.000;0.000;2023-01-30T04:42:30;97196.73;;;11.49;37.95
30856;BME280;17570;0.000;0.000;2023-01-30T04:45:00;97193.05;;;11.52;37.72
30856;BME280;17570;0.000;0.000;2023-01-30T04:47:28;97196.41;;;11.31;38.31
30856;BME280;17570;0.000;0.000;2023-01-30T04:49:56;97188.61;;;11.31;38.35
30856;BME280;17570;0.000;0.000;2023-01-30T04:52:23;97189.34;;;11.33;38.23
30856;BME280;17570;0.000;0.000;2023-01-30T04:54:51;97194.50;;;11.44;37.87
30856;BME280;17570;0.000;0.000;2023-01-30T04:57:18;97189.39;;;11.54;37.98
30856;BME280;17570;0.000;0.000;2023-01-30T04:59:46;97187.48;;;11.56;37.99
30856;BME280;17570;0.000;0.000;2023-01-30T05:02:14;97187.98;;;11.50;38.04
30856;BME280;17570;0.000;0.000;2023-01-30T05:04:41;97185.52;;;11.48;38.09
30856;BME280;17570;0.000;0.000;2023-01-30T05:07:09;97181.09;;;11.60;39.60
30856;BME280;17570;0.000;0.000;2023-01-30T05:09:37;97175.61;;;11.74;40.63
30856;BME280;17570;0.000;0.000;2023-01-30T05:12:04;97183.91;;;11.68;40.35
30856;BME280;17570;0.000;0.000;2023-01-30T05:14:32;97181.55;;;11.65;40.56
30856;BME280;17570;0.000;0.000;2023-01-30T05:17:00;97183.33;;;11.65;40.37
30856;BME280;17570;0.000;0.000;2023-01-30T05:19:28;97178.39;;;11.62;40.22
30856;BME280;17570;0.000;0.000;2023-01-30T05:21:55;97186.66;;;11.56;40.02
30856;BME280;17570;0.000;0.000;2023-01-30T05:24:23;97182.05;;;11.59;39.95
30856;BME280;17570;0.000;0.000;2023-01-30T05:26:50;97184.88;;;11.56;39.76
30856;BME280;17570;0.000;0.000;2023-01-30T05:29:18;97185.52;;;11.48;39.42
30856;BME280;17570;0.000;0.000;2023-01-30T05:31:45;97180.55;;;11.45;39.55
30856;BME280;17570;0.000;0.000;2023-01-30T05:34:13;97183.02;;;11.47;39.56
30856;BME280;17570;0.000;0.000;2023-01-30T05:36:40;97179.86;;;11.43;39.55
30856;BME280;17570;0.000;0.000;2023-01-30T05:39:08;97186.01;;;11.42;39.40
30856;BME280;17570;0.000;0.000;2023-01-30T05:41:35;97186.47;;;11.36;39.56
30856;BME280;17570;0.000;0.000;2023-01-30T05:44:03;97188.37;;;11.34;39.70
30856;BME280;17570;0.000;0.000;2023-01-30T05:46:30;97187.33;;;11.26;40.00
30856;BME280;17570;0.000;0.000;2023-01-30T05:48:58;97188.64;;;11.09;40.07
30856;BME280;17570;0.000;0.000;2023-01-30T05:51:26;97193.85;;;10.97;40.48
30856;BME280;17570;0.000;0.000;2023-01-30T05:53:53;97199.98;;;11.08;40.22
30856;BME280;17570;0.000;0.000;2023-01-30T05:56:21;97189.47;;;11.20;39.95
30856;BME280;17570;0.000;0.000;2023-01-30T05:58:52;97200.91;;;11.18;40.09
30856;BME280;17570;0.000;0.000;2023-01-30T06:01:20;97193.08;;;11.40;39.41
30856;BME280;17570;0.000;0.000;2023-01-30T06:03:48;97206.80;;;11.42;39.63
30856;BME280;17570;0.000;0.000;2023-01-30T06:06:16;97196.51;;;11.41;39.61
30856;BME280;17570;0.000;0.000;2023-01-30T06:08:43;97200.42;;;11.35;39.72
30856;BME280;17570;0.000;0.000;2023-01-30T06:11:12;97214.62;;;11.20;40.18
30856;BME280;17570;0.000;0.000;2023-01-30T06:13:40;97209.67;;;11.06;40.21
30856;BME280;17570;0.000;0.000;2023-01-30T06:16:08;97208.11;;;11.14;39.93
30856;BME280;17570;0.000;0.000;2023-01-30T06:18:37;97209.30;;;11.21;39.70
30856;BME280;17570;0.000;0.000;2023-01-30T06:21:05;97203.73;;;11.26;39.41
30856;BME280;17570;0.000;0.000;2023-01-30T06:23:32;97206.80;;;11.42;39.28
30856;BME280;17570;0.000;0.000;2023-01-30T06:26:00;97208.94;;;11.26;39.31
30856;BME280;17570;0.000;0.000;2023-01-30T06:28:28;97210.37;;;11.08;40.02
30856;BME280;17570;0.000;0.000;2023-01-30T06:30:55;97212.13;;;11.18;39.87
30856;BME280;17570;0.000;0.000;2023-01-30T06:33:24;97210.48;;;11.29;39.91
30856;BME280;17570;0.000;0.000;2023-01-30T06:35:52;97209.86;;;11.47;39.46
30856;BME280;17570;0.000;0.000;2023-01-30T06:38:19;97209.86;;;11.47;39.60
30856;BME280;17570;0.000;0.000;2023-01-30T06:40:47;97207.16;;;11.38;39.73
30856;BME280;17570;0.000;0.000;2023-01-30T06:43:15;97211.41;;;11.28;39.87
30856;BME280;17570;0.000;0.000;2023-01-30T06:45:43;97210.94;;;11.22;39.83
30856;BME280;17570;0.000;0.000;2023-01-30T06:48:10;97212.00;;;11.42;39.66
30856;BME280;17570;0.000;0.000;2023-01-30T06:50:38;97206.77;;;11.54;39.57
30856;BME280;17570;0.000;0.000;2023-01-30T06:53:05;97210.19;;;11.54;39.10
30856;BME280;17570;0.000;0.000;2023-01-30T06:55:34;97204.40;;;11.50;38.75
30856;BME280;17570;0.000;0.000;2023-01-30T07:00:36;97212.46;;;11.47;38.75
30856;BME280;17570;0.000;0.000;2023-01-30T07:03:09;97215.52;;;11.41;38.81
30856;BME280;17570;0.000;0.000;2023-01-30T07:05:35;97208.91;;;11.37;38.45
30856;BME280;17570;0.000;0.000;2023-01-30T07:08:03;97210.81;;;11.35;38.37
30856;BME280;17570;0.000;0.000;2023-01-30T07:10:30;97208.22;;;11.35;38.60
30856;BME280;17570;0.000;0.000;2023-01-30T07:12:58;97208.34;;;11.34;38.67
30856;BME280;17570;0.000;0.000;2023-01-30T07:15:26;97214.97;;;11.04;39.07
30856;BME280;17570;0.000;0.000;2023-01-30T07:17:54;97214.05;;;11.05;39.35
30856;BME280;17570;0.000;0.000;2023-01-30T07:20:21;97206.59;;;11.12;39.44
30856;BME280;17570;0.000;0.000;2023-01-30T07:22:52;97208.70;;;11.18;39.41
30856;BME280;17570;0.000;0.000;2023-01-30T07:25:21;97211.89;;;11.21;39.01
30856;BME280;17570;0.000;0.000;2023-01-30T07:27:49;97201.84;;;11.39;38.86
30856;BME280;17570;0.000;0.000;2023-01-30T07:30:17;97201.60;;;11.42;38.52
30856;BME280;17570;0.000;0.000;2023-01-30T07:32:49;97200.75;;;11.42;38.54
30856;BME280;17570;0.000;0.000;2023-01-30T07:35:17;97206.67;;;11.33;38.67
30856;BME280;17570;0.000;0.000;2023-01-30T07:37:45;97208.83;;;11.16;39.20
30856;BME280;17570;0.000;0.000;2023-01-30T07:40:14;97207.03;;;11.28;38.93
30856;BME280;17570;0.000;0.000;2023-01-30T07:42:42;97204.53;;;11.49;38.28
30856;BME280;17570;0.000;0.000;2023-01-30T07:45:12;97210.42;;;11.51;38.28
30856;BME280;17570;0.000;0.000;2023-01-30T07:47:40;97204.66;;;11.47;38.21
30856;BME280;17570;0.000;0.000;2023-01-30T07:50:07;97197.78;;;11.46;38.22
30856;BME280;17570;0.000;0.000;2023-01-30T07:52:35;97198.16;;;11.42;38.17
30856;BME280;17570;0.000;0.000;2023-01-30T07:55:02;97195.58;;;11.31;38.25
30856;BME280;17570;0.000;0.000;2023-01-30T07:57:30;97199.01;;;11.31;38.01
30856;BME280;17570;0.000;0.000;2023-01-30T07:59:57;97191.44;;;11.28;38.33
30856;BME280;17570;0.000;0.000;2023-01-30T08:02:25;97192.12;;;11.41;37.94
30856;BME280;17570;0.000;0.000;2023-01-30T08:04:52;97187.39;;;11.46;37.99
30856;BME280;17570;0.000;0.000;2023-01-30T08:07:20;97190.71;;;11.48;37.79
30856;BME280;17570;0.000;0.000;2023-01-30T08:09:47;97189.16;;;11.46;37.69
30856;BME280;17570;0.000;0.000;2023-01-30T08:12:15;97188.71;;;11.41;37.69
30856;BME280;17570;0.000;0.000;2023-01-30T08:14:42;97194.73;;;11.41;37.94
30856;BME280;17570;0.000;0.000;2023-01-30T08:17:10;97197.45;;;11.40;37.77
30856;BME280;17570;0.000;0.000;2023-01-30T08:19:39;97183.64;;;11.28;37.79
30856;BME280;17570;0.000;0.000;2023-01-30T08:22:06;97186.50;;;11.25;38.20
30856;BME280;17570;0.000;0.000;2023-01-30T08:24:34;97186.50;;;11.25;38.19
30856;BME280;17570;0.000;0.000;2023-01-30T08:27:01;97187.48;;;11.56;38.67
30856;BME280;17570;0.000;0.000;2023-01-30T08:29:29;97179.80;;;11.66;38.96
30856;BME280;17570;0.000;0.000;2023-01-30T08:31:58;97179.16;;;11.73;39.64
30856;BME280;17570;0.000;0.000;2023-01-30T08:34:25;97180.57;;;11.78;39.38
30856;BME280;17570;0.000;0.000;2023-01-30T08:36:53;97175.50;;;11.76;39.32
30856;BME280;17570;0.000;0.000;2023-01-30T08:39:20;97176.56;;;11.73;38.78
30856;BME280;17570;0.000;0.000;2023-01-30T08:41:47;97182.95;;;11.69;38.52
30856;BME280;17570;0.000;0.000;2023-01-30T08:44:15;97169.13;;;11.69;38.26
30856;BME280;17570;0.000;0.000;2023-01-30T08:46:42;97172.55;;;11.69;38.23
30856;BME280;17570;0.000;0.000;2023-01-30T08:49:11;97180.48;;;11.68;38.29
30856;BME280;17570;0.000;0.000;2023-01-30T08:51:39;97168.31;;;11.68;38.52
30856;BME280;17570;0.000;0.000;2023-01-30T08:54:06;97170.09;;;11.68;38.45
30856;BME280;17570;0.000;0.000;2023-01-30T08:56:35;97168.17;;;11.70;38.51
30856;BME280;17570;0.000;0.000;2023-01-30T08:59:03;97165.70;;;11.68;38.51
30856;BME280;17570;0.000;0.000;2023-01-30T09:01:30;97164.38;;;11.74;38.41
30856;BME280;17570;0.000;0.000;2023-01-30T09:03:58;97164.83;;;11.79;38.07
30856;BME280;17570;0.000;0.000;2023-01-30T09:06:25;97156.11;;;11.80;37.64
30856;BME280;17570;0.000;0.000;2023-01-30T09:08:52;97160.59;;;11.78;38.17
30856;BME280;17570;0.000;0.000;2023-01-30T09:11:20;97149.60;;;11.74;37.84
30856;BME280;17570;0.000;0.000;2023-01-30T09:13:47;97145.91;;;11.88;39.28
30856;BME280;17570;0.000;0.000;2023-01-30T09:16:16;97147.44;;;12.12;42.79
30856;BME280;17570;0.000;0.000;2023-01-30T09:18:43;97148.59;;;12.19;42.57
30856;BME280;17570;0.000;0.000;2023-01-30T09:21:11;97145.17;;;12.18;41.55
30856;BME280;17570;0.000;0.000;2023-01-30T09:23:39;97136.55;;;12.18;41.57
30856;BME280;17570;0.000;0.000;2023-01-30T09:26:06;97139.83;;;12.20;40.65
30856;BME280;17570;0.000;0.000;2023-01-30T09:28:34;97140.80;;;12.19;40.18
30856;BME280;17570;0.000;0.000;2023-01-30T09:31:01;97134.87;;;12.17;39.83
30856;BME280;17570;0.000;0.000;2023-01-30T09:33:29;97134.87;;;12.17;39.55
30856;BME280;17570;0.000;0.000;2023-01-30T09:35:56;97136.79;;;12.15;39.39
30856;BME280;17570;0.000;0.000;2023-01-30T09:38:24;97128.98;;;12.15;38.96
30856;BME280;17570;0.000;0.000;2023-01-30T09:40:58;97123.92;;;12.13;39.18
30856;BME280;17570;0.000;0.000;2023-01-30T09:48:57;97106.47;;;12.04;38.51
30856;BME280;17570;0.000;0.000;2023-01-30T09:57:11;97091.48;;;11.96;37.95
30856;BME280;17570;0.000;0.000;2023-01-30T09:59:25;97086.53;;;11.93;37.97
30856;BME280;17570;0.000;0.000;2023-01-30T10:04:33;97075.11;;;12.06;37.75
30856;BME280;17570;0.000;0.000;2023-01-30T10:07:04;97069.23;;;12.04;37.67
30856;BME280;17570;0.000;0.000;2023-01-30T10:15:06;97066.10;;;12.10;37.26
30856;BME280;17570;0.000;0.000;2023-01-30T10:25:43;97033.05;;;12.00;37.35
30856;BME280;17570;0.000;0.000;2023-01-30T10:30:39;97027.08;;;12.10;36.59
30856;BME280;17570;0.000;0.000;2023-01-30T10:33:18;97016.28;;;12.14;36.03
30856;BME280;17570;0.000;0.000;2023-01-30T10:35:43;97019.31;;;12.19;36.12
30856;BME280;17570;0.000;0.000;2023-01-30T10:54:13;96983.73;;;12.30;38.51
30856;BME280;17570;0.000;0.000;2023-01-30T10:56:56;96978.84;;;12.36;37.72
30856;BME280;17570;0.000;0.000;2023-01-30T10:59:23;96970.33;;;12.34;38.15
30856;BME280;17570;0.000;0.000;2023-01-30T11:04:37;96956.64;;;12.32;37.20
30856;BME280;17570;0.000;0.000;2023-01-30T11:07:04;96960.20;;;12.31;37.19
30856;BME280;17570;0.000;0.000;2023-01-30T11:09:42;96951.69;;;12.29;36.47
30856;BME280;17570;0.000;0.000;2023-01-30T11:12:10;96943.48;;;12.34;36.54
30856;BME280;17570;0.000;0.000;2023-01-30T11:14:56;96934.17;;;12.31;36.72
30856;BME280;17570;0.000;0.000;2023-01-30T11:17:28;96937.31;;;12.35;36.17
30856;BME280;17570;0.000;0.000;2023-01-30T11:19:56;96929.79;;;12.32;35.81
30856;BME280;17570;0.000;0.000;2023-01-30T11:22:25;96920.31;;;12.31;35.62
30856;BME280;17570;0.000;0.000;2023-01-30T11:25:01;96918.56;;;12.31;35.03
30856;BME280;17570;0.000;0.000;2023-01-30T11:27:32;96905.41;;;12.33;34.75
30856;BME280;17570;0.000;0.000;2023-01-30T11:30:04;96902.50;;;12.26;34.77
30856;BME280;17570;0.000;0.000;2023-01-30T11:32:32;96904.02;;;12.29;34.61
30856;BME280;17570;0.000;0.000;2023-01-30T11:35:02;96894.98;;;12.23;34.70
30856;BME280;17570;0.000;0.000;2023-01-30T11:37:38;96881.97;;;12.23;34.89
30856;BME280;17570;0.000;0.000;2023-01-30T11:40:28;96884.28;;;12.26;35.04
30856;BME280;17570;0.000;0.000;2023-01-30T11:42:35;96875.13;;;12.22;35.10
30856;BME280;17570;0.000;0.000;2023-01-30T11:45:09;96865.64;;;12.21;35.12
30856;BME280;17570;0.000;0.000;2023-01-30T11:47:33;96863.75;;;12.23;34.94
30856;BME280;17570;0.000;0.000;2023-01-30T11:50:00;96854.56;;;12.19;35.34
30856;BME280;17570;0.000;0.000;2023-01-30T11:52:33;96845.80;;;12.20;35.13
30856;BME280;17570;0.000;0.000;2023-01-30T11:55:03;96842.52;;;12.18;35.10
30856;BME280;17570;0.000;0.000;2023-01-30T11:57:43;96840.32;;;12.13;35.28
30856;BME280;17570;0.000;0.000;2023-01-30T12:00:26;96837.16;;;12.10;35.02
30856;BME280;17570;0.000;0.000;2023-01-30T12:02:49;96836.59;;;12.06;35.44
30856;BME280;17570;0.000;0.000;2023-01-30T12:07:47;96818.27;;;12.08;35.49
30856;BME280;17570;0.000;0.000;2023-01-30T12:10:28;96818.27;;;12.08;35.52
30856;BME280;17570;0.000;0.000;2023-01-30T12:12:49;96808.54;;;12.10;35.41
30856;BME280;17570;0.000;0.000;2023-01-30T12:17:58;96808.80;;;12.07;35.68
30856;BME280;17570;0.000;0.000;2023-01-30T12:23:11;96808.67;;;11.98;36.27
30856;BME280;17570;0.000;0.000;2023-01-30T12:25:41;96798.67;;;11.94;35.94
30856;BME280;17570;0.000;0.000;2023-01-30T12:28:16;96804.69;;;11.94;35.45
30856;BME280;17570;0.000;0.000;2023-01-30T12:30:42;96798.53;;;11.95;35.41
30856;BME280;17570;0.000;0.000;2023-01-30T12:33:11;96785.67;;;11.94;35.45
30856;BME280;17570;0.000;0.000;2023-01-30T12:56:47;96775.36;;;11.83;36.73
30856;BME280;17570;0.000;0.000;2023-01-30T12:59:18;96771.24;;;11.80;37.12
30856;BME280;17570;0.000;0.000;2023-01-30T13:04:42;96759.36;;;11.87;36.95
30856;BME280;17570;0.000;0.000;2023-01-30T13:07:16;96749.22;;;11.84;37.08
30856;BME280;17570;0.000;0.000;2023-01-30T13:28:00;96732.84;;;12.03;41.66
30856;BME280;17570;0.000;0.000;2023-01-30T13:30:28;96736.37;;;12.12;43.07
30856;BME280;17570;0.000;0.000;2023-01-30T13:32:57;96734.05;;;12.18;43.07
30856;BME280;17570;0.000;0.000;2023-01-30T13:35:32;96719.83;;;12.13;41.49
30856;BME280;17570;0.000;0.000;2023-01-30T13:37:55;96722.69;;;12.19;41.66
30856;BME280;17570;0.000;0.000;2023-01-30T13:40:27;96718.84;;;12.23;41.38
30856;BME280;17570;0.000;0.000;2023-01-30T13:45:33;96722.13;;;12.16;39.86
30856;BME280;17570;0.000;0.000;2023-01-30T13:58:37;96713.92;;;12.01;38.64
30856;BME280;17570;0.000;0.000;2023-01-30T14:01:06;96705.04;;;11.94;38.48
30856;BME280;17570;0.000;0.000;2023-01-30T14:03:35;96709.39;;;11.93;38.48
30856;BME280;17570;0.000;0.000;2023-01-30T14:06:04;96710.36;;;11.92;38.62
30856;BME280;17570;0.000;0.000;2023-01-30T14:08:37;96698.58;;;11.88;38.53
30856;BME280;17570;0.000;0.000;2023-01-30T14:11:03;96696.69;;;11.90;38.07
30856;BME280;17570;0.000;0.000;2023-01-30T14:13:31;96696.27;;;11.85;38.22
30856;BME280;17570;0.000;0.000;2023-01-30T14:16:02;96691.34;;;11.82;38.22
30856;BME280;17570;0.000;0.000;2023-01-30T14:18:31;96696.77;;;11.79;37.87
30856;BME280;17570;0.000;0.000;2023-01-30T14:21:14;96690.34;;;11.73;37.98
30856;BME280;17570;0.000;0.000;2023-01-30T14:29:58;96689.25;;;11.57;38.52
30856;BME280;17570;0.000;0.000;2023-01-30T14:31:45;96692.24;;;11.52;38.58
30856;BME280;17570;0.000;0.000;2023-01-30T14:36:57;96679.78;;;11.56;38.74
30856;BME280;17570;0.000;0.000;2023-01-30T14:39:39;96683.47;;;11.43;38.71
30856;BME280;17570;0.000;0.000;2023-01-30T14:42:19;96681.29;;;11.48;38.65
30856;BME280;17570;0.000;0.000;2023-01-30T14:45:12;96674.73;;;11.54;40.54
30856;BME280;17570;0.000;0.000;2023-01-30T14:47:31;96687.06;;;11.71;43.02
30856;BME280;17570;0.000;0.000;2023-01-30T14:49:59;96681.16;;;11.79;43.91
30856;BME280;17570;0.000;0.000;2023-01-30T14:52:39;96677.37;;;11.83;42.62
30856;BME280;17570;0.000;0.000;2023-01-30T14:55:18;96681.34;;;11.87;42.58
30856;BME280;17570;0.000;0.000;2023-01-30T14:58:01;96676.92;;;11.78;41.82
30856;BME280;17570;0.000;0.000;2023-01-30T15:00:38;96678.30;;;11.72;41.15
30856;BME280;17570;0.000;0.000;2023-01-30T15:02:58;96675.14;;;11.69;40.45
30856;BME280;17570;0.000;0.000;2023-01-30T15:05:30;96676.92;;;11.68;40.29
30856;BME280;17570;0.000;0.000;2023-01-30T15:08:14;96679.38;;;11.70;40.14
30856;BME280;17570;0.000;0.000;2023-01-30T15:18:44;96683.19;;;11.46;39.64
30856;BME280;17570;0.000;0.000;2023-01-30T15:21:25;96673.34;;;11.50;39.77
30856;BME280;17570;0.000;0.000;2023-01-30T15:31:58;96676.59;;;11.33;39.28
30856;BME280;17570;0.000;0.000;2023-01-30T15:34:21;96672.34;;;11.22;39.22
30856;BME280;17570;0.000;0.000;2023-01-30T15:36:49;96670.63;;;10.92;39.40
30856;BME280;17570;0.000;0.000;2023-01-30T15:39:20;96676.84;;;11.10;39.33
30856;BME280;17570;0.000;0.000;2023-01-30T15:41:49;96676.03;;;9.42;40.11
30856;BME280;17570;0.000;0.000;2023-01-30T15:51:54;96663.11;;;10.98;39.52
30856;BME280;17570;0.000;0.000;2023-01-30T15:54:22;96665.34;;;11.13;39.42
30856;BME280;17570;0.000;0.000;2023-01-30T15:56:50;96656.89;;;11.20;39.29
30856;BME280;17570;0.000;0.000;2023-01-30T15:59:32;96659.25;;;11.33;39.30
30856;BME280;17570;0.000;0.000;2023-01-30T16:02:14;96653.20;;;11.33;39.33
30856;BME280;17570;0.000;0.000;2023-01-30T16:04:38;96660.19;;;11.32;39.65
30856;BME280;17570;0.000;0.000;2023-01-30T16:07:15;96648.02;;;11.33;39.62
30856;BME280;17570;0.000;0.000;2023-01-30T16:09:50;96647.34;;;11.40;39.43
30856;BME280;17570;0.000;0.000;2023-01-30T16:12:24;96639.30;;;11.43;39.25